Terminal Aerodrome Forecast
Issued by NWS

Home | Current Version | Previous Version | Text Only | Print | Product List | Glossary On
Versions: 1 2 3 4 5 6 7 8 9 10 11 12
000
FTUS46 KSGX 201737
TAFPSP
TAF
KPSP 201737Z 2018/2118 32012G18KT P6SM SKC
     FM210200 32015G25KT P6SM SKC
     FM210900 32011KT P6SM SKC
     FM211300 17004KT P6SM SCT100=

USA.gov is the U.S. government's official web portal to all federal, state and local government web resources and services.